TimeMDT,TemperatureF,Dew PointF,Humidity,Sea Level PressureIn,VisibilityMPH,Wind Direction,Wind SpeedMPH,Gust SpeedMPH,PrecipitationIn,Events,Conditions,WindDirDegrees,DateUTC
12:53 AM,70.0,44.1,39,29.86,10.0,East,6.9,-,N/A,,Clear,90,2014-07-16 06:53:00
1:53 AM,66.9,46.9,49,29.86,10.0,West,3.5,-,N/A,,Clear,260,2014-07-16 07:53:00
2:53 AM,66.9,46.0,47,29.85,10.0,South,6.9,-,N/A,,Clear,170,2014-07-16 08:53:00
3:53 AM,63.0,45.0,52,29.86,10.0,SSE,6.9,-,N/A,,Clear,150,2014-07-16 09:53:00
4:53 AM,62.1,46.0,56,29.86,10.0,South,3.5,-,N/A,,Clear,180,2014-07-16 10:53:00
5:53 AM,60.1,45.0,57,29.89,10.0,SSE,4.6,-,N/A,,Clear,150,2014-07-16 11:53:00
6:53 AM,63.0,46.0,54,29.90,10.0,SSE,4.6,-,N/A,,Clear,150,2014-07-16 12:53:00
7:53 AM,66.0,46.9,50,29.89,10.0,SSE,6.9,-,N/A,,Clear,150,2014-07-16 13:53:00
8:29 AM,66.9,48.0,51,30.17,10.0,West,10.4,-,N/A,Thunderstorm,Mostly Cloudy,270,2014-07-16 14:29:00
8:36 AM,66.0,50.0,56,30.17,10.0,SW,10.4,-,0.00,Rain-Thunderstorm,Light Thunderstorms and Rain,230,2014-07-16 14:36:00
8:53 AM,64.0,54.0,70,29.95,10.0,ESE,5.8,-,0.00,Rain,Light Rain,120,2014-07-16 14:53:00
9:18 AM,63.0,55.0,75,30.19,10.0,East,6.9,-,0.02,Rain-Thunderstorm,Light Thunderstorms and Rain,100,2014-07-16 15:18:00
9:33 AM,64.9,57.0,75,30.18,10.0,SE,12.7,-,0.02,,Overcast,130,2014-07-16 15:33:00
9:53 AM,66.0,55.9,70,29.94,10.0,SE,12.7,-,0.02,Rain,Light Rain,140,2014-07-16 15:53:00
10:53 AM,72.0,55.0,55,29.92,10.0,SSE,15.0,-,0.00,,Mostly Cloudy,160,2014-07-16 16:53:00
11:53 AM,81.0,51.1,35,29.88,10.0,SE,17.3,-,N/A,,Partly Cloudy,140,2014-07-16 17:53:00
12:53 PM,82.0,48.9,31,29.85,10.0,SE,6.9,-,N/A,,Scattered Clouds,140,2014-07-16 18:53:00
1:53 PM,86.0,48.0,27,29.81,10.0,Variable,4.6,-,N/A,,Partly Cloudy,0,2014-07-16 19:53:00
2:53 PM,88.0,46.0,23,29.77,10.0,Variable,5.8,-,N/A,,Clear,0,2014-07-16 20:53:00
3:53 PM,88.0,45.0,22,29.75,10.0,NW,4.6,-,N/A,,Clear,310,2014-07-16 21:53:00
4:53 PM,87.1,43.0,21,29.73,10.0,West,8.1,-,N/A,,Partly Cloudy,270,2014-07-16 22:53:00
5:53 PM,87.1,43.0,21,29.71,10.0,NNW,3.5,-,N/A,,Scattered Clouds,340,2014-07-16 23:53:00
6:53 PM,86.0,44.1,23,29.69,10.0,North,5.8,-,N/A,,Mostly Cloudy,360,2014-07-17 00:53:00
7:53 PM,84.0,46.0,26,29.70,10.0,NNW,5.8,-,N/A,,Clear,340,2014-07-17 01:53:00
8:53 PM,80.1,46.0,30,29.72,10.0,NNE,4.6,-,N/A,Thunderstorm,Scattered Clouds,20,2014-07-17 02:53:00
9:16 PM,80.1,48.0,32,29.98,10.0,SSW,4.6,-,N/A,,Scattered Clouds,210,2014-07-17 03:16:00
9:28 PM,79.0,48.0,34,30.00,10.0,NE,6.9,-,N/A,Thunderstorm,Thunderstorm,50,2014-07-17 03:28:00
9:43 PM,79.0,41.0,26,29.99,10.0,SSE,8.1,-,N/A,,Scattered Clouds,150,2014-07-17 03:43:00
9:53 PM,79.0,44.1,29,29.74,10.0,South,9.2,-,N/A,,Partly Cloudy,170,2014-07-17 03:53:00
10:53 PM,73.9,46.9,38,29.75,10.0,South,8.1,-,N/A,,Partly Cloudy,190,2014-07-17 04:53:00
11:53 PM,75.9,42.1,30,29.74,10.0,NE,9.2,-,N/A,,Clear,50,2014-07-17 05:53:00